Air Sicilia Virtual Airways - Route

Air Sicilia Virtual Airways - SIC207L

( IT ) LIMP
Parma Airport
PARMA ( PMF )
plane_to ( IT ) LIMW
Aosta Airport
AOSTA ( AOT )
IVAO VFR ITALY 2018 - LEG: 16

AIRPORT NEAR NAVIGATION AIDS

Type Name Frequency
NDB Parma 306 KHZ

METAR / TAF
LIMP 180450Z 22005KT CAVOK 18/17 Q1015
LIMP 171931Z 1718/1818 CNL

RUNWAY INFORMATION

Runway Runway length Runway width Runway elevation Runway displaced threshold Runway heading
02 6962 148 158 702 17
20 6962 148 146 597 197

AIRPORT FREQUENCIES

Type Name Frequency
APP APP 126.55 MHZ
TWR TWR 118.45 MHZ

AIRPORT NEAR NAVIGATION AIDS

Type Name Frequency

METAR / TAF
LIMW 180450Z AUTO VRB02KT 9999 FEW040 15/14 Q1019

RUNWAY INFORMATION

Runway Runway length Runway width Runway elevation Runway displaced threshold Runway heading
09 4088 98 1790 213 85
27 4088 98 1773 115 265

AIRPORT FREQUENCIES

Type Name Frequency
AFIS INFO 119.95 MHZ

Flightplan

via PO RIVER (PAVIA -BASSIGNANA - VALENZA - FRASSINETO PO - CHIVASSO) - IVREA - SAINT VINCENT

Air Sicilia Virtual Airways Fleets

AVAILABLE AIRCRAFTS for route at this time in Parma Airport
C172 - Cessna 172 Skyhawk
( US ) Cessna

Aircraft in fleet: 13

C208 - Cessna 208 Caravan
( US ) Cessna

Aircraft in fleet: 13

PC12 - Pilatus PC12 Eagle
( CH ) Pilatus

Aircraft in fleet: 4

190 NM

Distance in nautical miles.

€ 200,00

Ticket price for this flight.

Nr. 16

Leg



12-11-2018
Aerosoft Airport Rio de Janeiro International V2.0 XP

L'Aeroporto Internazionale di Rio de Janeiro-Galeão (IATA: GIG, ICAO: SBGL), costruito nel 1952 nel quartiere di Ilha do Governador ed intitolato al musicista Antônio Carlos Jobim, è il principale aeroporto internazio ....


15-10-2018
Aerosoft A320 Family professional

La gamma di aeromobili A320 è una delle più comuni nei cieli. Questi aerei di linea a doppio-getto a corto e medio raggio si sono dimostrati convenienti, affidabili e prontamente disponibili, rendendoli le opzioni migl ....


10-10-2018
Motore critico ( Critical Engine )

Il motore critico di un velivolo ad ala fissa multi-motore è il motore che, in caso di guasto, influirebbe negativamente sulle prestazioni o sulla capacità di manovra di un aereo. Sui velivoli ad elica, vi è un ....


04-10-2018
Aerosoft Dortmund XP

Scopri il centro della regione della Ruhr su XPlane 11 - lo scenario Dortmund XP è una ricostruzione completa della città di Dortmund per il simulatore di volo targato Laminar. Oltre all'intera area urbana di Dortmu ....


07-08-2018
Aerosoft Professional Flight Planner PFPX

PFPX - Professional Flight Planner X - è un nuovo ed innovativo strumento di pianificazione del volo sviluppato da piloti e dispatcher del mondo reale. È un'aggiunta preziosa e realistica alla tua esperienza di simulaz ....